createdAt,value
2023-03-10T00:01:57.319Z,99127.25
2023-03-10T00:04:29.823Z,99137.63
2023-03-10T00:06:59.949Z,99135.78
2023-03-10T00:09:29.844Z,99130.59
2023-03-10T00:12:02.091Z,99128.88
2023-03-10T00:14:31.991Z,99128.88
2023-03-10T00:17:01.878Z,99115.88
2023-03-10T00:19:34.492Z,99116.59
2023-03-10T00:22:05.568Z,99113.09
2023-03-10T00:24:35.572Z,99113.03
2023-03-10T00:27:05.591Z,99114.00
2023-03-10T00:29:35.784Z,99110.44
2023-03-10T00:32:08.866Z,99104.41
2023-03-10T00:34:41.593Z,99106.22
2023-03-10T00:37:11.499Z,99095.84
2023-03-10T00:39:42.296Z,99101.19
2023-03-10T00:42:12.440Z,99102.84
2023-03-10T00:44:42.499Z,99097.63
2023-03-10T00:47:12.474Z,99099.28
2023-03-10T00:49:45.120Z,99087.19
2023-03-10T00:52:16.912Z,99081.19
2023-03-10T00:54:46.876Z,99085.63
2023-03-10T00:57:16.705Z,99079.59
2023-03-10T00:59:50.715Z,99071.03
2023-03-10T01:02:21.145Z,99068.44
2023-03-10T01:05:04.327Z,99067.56
2023-03-10T01:43:10.237Z,99022.16
2023-03-10T01:44:31.736Z,99024.34
2023-03-10T01:47:02.124Z,99026.91
2023-03-10T01:49:41.121Z,99022.50
2023-03-10T01:52:16.400Z,99038.94
2023-03-10T01:54:52.002Z,99031.84
2023-03-10T01:57:26.635Z,99024.00
2023-03-10T01:59:58.635Z,99028.31
2023-03-10T02:02:29.196Z,99017.91
2023-03-10T02:05:02.115Z,99015.41
2023-03-10T02:07:33.211Z,99024.19
2023-03-10T02:10:03.585Z,99007.63
2023-03-10T02:12:33.411Z,99014.66
2023-03-10T02:15:04.444Z,99015.59
2023-03-10T02:17:34.359Z,99019.00
2023-03-10T02:20:32.089Z,99003.44
2023-03-10T02:23:01.969Z,99000.78
2023-03-10T02:25:43.763Z,99000.84
2023-03-10T02:28:21.938Z,98997.44
2023-03-10T02:30:53.872Z,98984.47
2023-03-10T02:33:27.685Z,98984.31
2023-03-10T02:35:57.597Z,98978.22
2023-03-10T02:38:27.470Z,98978.94
2023-03-10T02:40:57.594Z,98989.41
2023-03-10T02:43:33.931Z,98969.50
2023-03-10T02:46:07.001Z,98977.97
2023-03-10T02:48:40.356Z,98971.91
2023-03-10T02:51:16.051Z,98980.53
2023-03-10T03:18:23.692Z,98973.47
2023-03-10T03:20:54.421Z,98961.88
2023-03-10T03:23:24.311Z,98960.03
2023-03-10T03:25:54.335Z,98964.28
2023-03-10T03:28:24.260Z,98961.56
2023-03-10T03:31:18.338Z,98960.66
2023-03-10T03:34:55.433Z,98956.13
2023-03-10T03:38:10.810Z,98955.16
2023-03-10T03:41:18.497Z,98955.97
2023-03-10T04:15:17.843Z,98936.84
2023-03-10T04:17:48.025Z,98941.94
2023-03-10T04:20:18.777Z,98948.97
2023-03-10T04:22:54.977Z,98951.44
2023-03-10T04:47:17.241Z,98940.47
2023-03-10T04:49:47.059Z,98947.41
2023-03-10T04:52:17.226Z,98944.00
2023-03-10T04:54:47.060Z,98942.22
2023-03-10T04:57:16.817Z,98950.00
2023-03-10T04:59:53.073Z,98930.09
2023-03-10T05:02:22.880Z,98955.09
2023-03-10T05:04:52.688Z,98942.13
2023-03-10T05:07:22.652Z,98943.91
2023-03-10T05:09:52.459Z,98941.25
2023-03-10T05:12:22.679Z,98944.72
2023-03-10T05:14:55.078Z,98939.59
2023-03-10T05:17:24.902Z,98931.84
2023-03-10T05:19:55.081Z,98935.38
2023-03-10T05:22:24.923Z,98931.06
2023-03-10T05:24:54.736Z,98928.47
2023-03-10T05:27:24.771Z,98943.13
2023-03-10T05:29:57.171Z,98944.72
2023-03-10T05:32:27.111Z,98941.16
2023-03-10T05:34:56.979Z,98934.94
2023-03-10T05:37:26.973Z,98945.16
2023-03-10T05:39:56.967Z,98947.53
2023-03-10T05:42:26.850Z,98947.34
2023-03-10T05:45:21.951Z,98948.13
2023-03-10T05:47:52.159Z,98950.53
2023-03-10T05:50:22.187Z,98945.25
2023-03-10T05:52:52.094Z,98959.84
2023-03-10T05:55:24.224Z,98954.44
2023-03-10T05:57:54.074Z,98950.81
2023-03-10T06:00:27.764Z,98958.50
2023-03-10T06:03:00.122Z,98951.50
2023-03-10T06:05:32.334Z,98948.81
2023-03-10T06:08:06.049Z,98948.69
2023-03-10T06:10:53.171Z,98959.84
2023-03-10T06:13:46.934Z,98958.94
2023-03-10T06:28:38.952Z,98958.00
2023-03-10T06:31:15.321Z,98963.16
2023-03-10T06:33:46.842Z,98962.13
2023-03-10T06:36:20.460Z,98955.88
2023-03-10T06:39:30.112Z,98950.59
2023-03-10T06:42:04.085Z,98947.00
2023-03-10T06:44:37.765Z,98957.22
2023-03-10T06:47:21.163Z,98952.75
2023-03-10T06:50:01.549Z,98949.28
2023-03-10T06:52:40.357Z,98955.16
2023-03-10T06:55:13.837Z,98951.69
2023-03-10T06:57:47.929Z,98951.69
2023-03-10T07:00:35.126Z,98958.63
2023-03-10T07:03:05.283Z,98966.34
2023-03-10T07:05:41.958Z,98973.22
2023-03-10T07:08:43.737Z,98970.63
2023-03-10T07:11:14.138Z,98971.53
2023-03-10T07:13:55.507Z,98972.28
2023-03-10T07:16:32.454Z,98983.56
2023-03-10T07:19:10.453Z,98987.88
2023-03-10T07:21:40.469Z,98991.22
2023-03-10T07:24:10.465Z,99000.88
2023-03-10T07:26:41.048Z,99015.59
2023-03-10T07:29:11.088Z,99016.41
2023-03-10T07:31:43.461Z,99016.22
2023-03-10T07:34:13.339Z,99013.56
2023-03-10T07:36:43.253Z,99010.16
2023-03-10T07:39:13.278Z,99012.75
2023-03-10T07:41:43.086Z,99007.50
2023-03-10T07:44:13.024Z,99015.34
2023-03-10T07:46:47.818Z,99018.81
2023-03-10T07:49:19.944Z,99017.09
2023-03-10T07:51:51.722Z,99007.63
2023-03-10T07:54:21.501Z,99010.09
2023-03-10T07:56:51.324Z,99010.94
2023-03-10T07:59:21.148Z,99023.03
2023-03-10T08:01:53.517Z,99028.22
2023-03-10T08:04:23.562Z,99030.88
2023-03-10T08:06:57.741Z,99035.09
2023-03-10T08:09:28.489Z,99034.25
2023-03-10T08:11:58.566Z,99043.00
2023-03-10T08:14:32.971Z,99054.97
2023-03-10T08:17:05.432Z,99063.56
2023-03-10T08:19:47.612Z,99054.97
2023-03-10T08:22:20.690Z,99052.38
2023-03-10T08:24:51.632Z,99058.53
2023-03-10T08:27:21.858Z,99056.97
2023-03-10T08:29:52.585Z,99063.03
2023-03-10T08:32:25.125Z,99067.44
2023-03-10T08:34:54.940Z,99070.09
2023-03-10T08:37:24.728Z,99073.63
2023-03-10T08:39:56.697Z,99079.69
2023-03-10T08:42:26.580Z,99087.44
2023-03-10T08:44:58.330Z,99081.41
2023-03-10T08:47:32.381Z,99077.09
2023-03-10T08:50:02.440Z,99078.00
2023-03-10T08:52:32.272Z,99074.47
2023-03-10T08:55:02.114Z,99062.31
2023-03-10T08:57:31.936Z,99063.97
2023-03-10T09:00:01.830Z,99065.50
2023-03-10T09:02:37.320Z,99070.66
2023-03-10T09:05:07.685Z,99064.56
2023-03-10T09:07:37.537Z,99075.78
2023-03-10T09:10:09.000Z,99068.88
2023-03-10T09:12:39.652Z,99080.81
2023-03-10T09:15:10.698Z,99074.81
2023-03-10T09:17:43.104Z,99081.69
2023-03-10T09:20:15.688Z,99084.97
2023-03-10T09:22:45.972Z,99105.53
2023-03-10T09:25:15.835Z,99103.84
2023-03-10T09:27:46.793Z,99100.50
2023-03-10T09:30:18.076Z,99110.84
2023-03-10T09:32:55.413Z,99121.22
2023-03-10T09:35:25.710Z,99115.22
2023-03-10T09:37:55.885Z,99112.66
2023-03-10T09:40:26.387Z,99134.22
2023-03-10T09:43:02.992Z,99115.22
2023-03-10T09:45:41.414Z,99128.97
2023-03-10T09:48:28.079Z,99111.81
2023-03-10T09:50:59.610Z,99120.47
2023-03-10T09:53:48.079Z,99117.19
2023-03-10T09:56:22.307Z,99120.88
2023-03-10T09:58:55.868Z,99128.84
2023-03-10T10:01:29.566Z,99107.28
2023-03-10T10:04:07.636Z,99112.59
2023-03-10T10:06:40.369Z,99111.91
2023-03-10T10:09:20.180Z,99127.66
2023-03-10T10:11:49.927Z,99119.25
2023-03-10T10:14:29.589Z,99115.91
2023-03-10T10:17:32.478Z,99117.75
2023-03-10T10:20:09.202Z,99119.53
2023-03-10T10:22:39.554Z,99128.22
2023-03-10T10:25:22.452Z,99123.13
2023-03-10T10:27:55.444Z,99131.91
2023-03-10T10:30:36.573Z,99142.47
2023-03-10T10:33:08.366Z,99150.22
2023-03-10T10:35:43.260Z,99132.16
2023-03-10T10:38:26.600Z,99135.56
2023-03-10T10:41:07.195Z,99141.59
2023-03-10T10:43:44.389Z,99140.91
2023-03-10T10:46:16.716Z,99158.16
2023-03-10T10:48:48.589Z,99162.50
2023-03-10T10:51:30.344Z,99146.13
2023-03-10T10:54:00.996Z,99162.50
2023-03-10T10:56:31.938Z,99151.38
2023-03-10T10:59:08.517Z,99146.13
2023-03-10T11:01:54.613Z,99148.78
2023-03-10T11:04:26.522Z,99154.84
2023-03-10T11:07:12.825Z,99167.19
2023-03-10T11:09:43.099Z,99159.56
2023-03-10T11:12:24.838Z,99156.13
2023-03-10T11:15:07.096Z,99152.84
2023-03-10T11:17:45.493Z,99167.50
2023-03-10T11:20:30.916Z,99170.25
2023-03-10T11:23:14.299Z,99165.94
2023-03-10T11:25:50.475Z,99162.47
2023-03-10T11:28:53.384Z,99166.06
2023-03-10T11:31:52.805Z,99167.13
2023-03-10T11:34:33.638Z,99175.94
2023-03-10T11:37:40.527Z,99185.53
2023-03-10T11:40:22.058Z,99164.91
2023-03-10T11:43:05.258Z,99163.31
2023-03-10T11:45:41.049Z,99160.81
2023-03-10T11:48:27.429Z,99147.97
2023-03-10T11:50:59.386Z,99147.28
2023-03-10T11:53:37.135Z,99136.13
2023-03-10T11:56:14.953Z,99138.75
2023-03-10T11:58:49.383Z,99121.44
2023-03-10T12:01:24.625Z,99133.59
2023-03-10T12:04:19.087Z,99140.66
2023-03-10T12:06:55.254Z,99139.22
2023-03-10T12:09:42.357Z,99128.78
2023-03-10T12:12:18.050Z,99118.38
2023-03-10T12:14:49.240Z,99119.38
2023-03-10T12:17:20.820Z,99121.41
2023-03-10T12:20:12.297Z,99126.69
2023-03-10T12:22:43.931Z,99124.16
2023-03-10T12:25:45.180Z,99118.31
2023-03-10T12:28:27.820Z,99110.72
2023-03-10T12:31:00.367Z,99119.34
2023-03-10T12:34:11.398Z,99126.41
2023-03-10T12:36:43.558Z,99152.34
2023-03-10T12:39:43.080Z,99139.38
2023-03-10T12:42:31.905Z,99146.34
2023-03-10T12:45:18.463Z,99139.56
2023-03-10T12:47:58.925Z,99139.56
2023-03-10T12:50:39.351Z,99154.19
2023-03-10T12:53:27.080Z,99133.22
2023-03-10T12:56:23.215Z,99157.44
2023-03-10T12:59:05.262Z,99166.94
2023-03-10T13:01:55.014Z,99143.63
2023-03-10T13:04:28.467Z,99143.63
2023-03-10T13:07:03.817Z,99144.53
2023-03-10T13:09:39.093Z,99141.16
2023-03-10T13:12:14.675Z,99148.94
2023-03-10T13:14:46.554Z,99145.44
2023-03-10T13:17:29.126Z,99134.16
2023-03-10T13:20:05.766Z,99135.06
2023-03-10T13:22:36.112Z,99134.38
2023-03-10T13:25:09.792Z,99151.72
2023-03-10T13:27:39.552Z,99139.56
2023-03-10T13:30:26.811Z,99155.31
2023-03-10T13:33:07.303Z,99152.72
2023-03-10T13:35:47.480Z,99162.22
2023-03-10T13:38:20.992Z,99179.63
2023-03-10T13:40:53.847Z,99180.69
2023-03-10T13:43:39.359Z,99193.75
2023-03-10T13:46:16.946Z,99208.50
2023-03-10T13:48:50.548Z,99208.50
2023-03-10T13:51:23.967Z,99210.28
2023-03-10T13:53:56.056Z,99214.75
2023-03-10T13:56:28.060Z,99219.13
2023-03-10T13:59:02.566Z,99219.13
2023-03-10T14:01:35.647Z,99227.03
2023-03-10T14:04:11.190Z,99222.78
2023-03-10T14:06:40.973Z,99239.19
2023-03-10T14:09:19.039Z,99250.50
2023-03-10T14:11:50.565Z,99245.31
2023-03-10T14:14:31.025Z,99261.66
2023-03-10T14:17:02.111Z,99265.97
2023-03-10T14:19:55.466Z,99257.25
2023-03-10T14:22:35.460Z,99273.41
2023-03-10T14:25:09.292Z,99276.72
2023-03-10T14:27:42.102Z,99295.66
2023-03-10T14:30:25.934Z,99292.19
2023-03-10T14:32:56.493Z,99316.34
2023-03-10T14:35:29.876Z,99324.97
2023-03-10T14:37:59.627Z,99322.84
2023-03-10T14:40:30.262Z,99322.81
2023-03-10T14:43:04.209Z,99344.34
2023-03-10T14:45:36.493Z,99348.88
2023-03-10T14:48:14.906Z,99344.50
2023-03-10T14:50:47.796Z,99337.34
2023-03-10T14:53:19.709Z,99349.38
2023-03-10T14:55:51.622Z,99331.97
2023-03-10T14:58:24.268Z,99337.91
2023-03-10T15:00:54.516Z,99326.75
2023-03-10T15:03:24.568Z,99326.78
2023-03-10T15:05:56.982Z,99341.75
2023-03-10T15:08:28.675Z,99349.69
2023-03-10T15:11:00.947Z,99352.44
2023-03-10T15:13:36.175Z,99357.75
2023-03-10T15:16:06.258Z,99364.66
2023-03-10T15:18:37.521Z,99369.38
2023-03-10T15:21:12.132Z,99388.81
2023-03-10T15:23:42.029Z,99390.19
2023-03-10T15:26:13.542Z,99388.41
2023-03-10T15:29:51.477Z,99383.16
2023-03-10T15:32:21.515Z,99393.53
2023-03-10T15:34:55.792Z,99393.47
2023-03-10T15:37:28.341Z,99414.16
2023-03-10T15:39:58.240Z,99403.63
2023-03-10T15:42:28.147Z,99413.63
2023-03-10T15:45:00.924Z,99424.69
2023-03-10T15:47:31.396Z,99419.06
2023-03-10T15:50:01.540Z,99433.47
2023-03-10T15:52:34.047Z,99430.06
2023-03-10T15:55:05.669Z,99435.13
2023-03-10T15:57:35.871Z,99462.59
2023-03-10T16:00:07.085Z,99469.34
2023-03-10T16:02:36.902Z,99473.22
2023-03-10T16:05:08.691Z,99478.13
2023-03-10T16:07:41.212Z,99476.50
2023-03-10T16:10:13.522Z,99480.94
2023-03-10T16:12:43.309Z,99491.34
2023-03-10T16:15:16.953Z,99491.66
2023-03-10T16:17:47.910Z,99507.63
2023-03-10T16:20:19.261Z,99499.25
2023-03-10T16:22:51.768Z,99515.56
2023-03-10T16:25:23.480Z,99504.28
2023-03-10T16:27:53.415Z,99529.31
2023-03-10T16:30:28.075Z,99536.13
2023-03-10T16:33:00.875Z,99538.59
2023-03-10T16:35:33.221Z,99533.31
2023-03-10T16:38:08.797Z,99544.53
2023-03-10T16:40:55.943Z,99571.19
2023-03-10T16:43:25.845Z,99572.06
2023-03-10T16:46:11.043Z,99584.25
2023-03-10T16:48:49.965Z,99591.84
2023-03-10T16:51:29.584Z,99592.75
2023-03-10T16:54:04.062Z,99585.19
2023-03-10T16:56:42.303Z,99594.81
2023-03-10T16:59:18.235Z,99599.19
2023-03-10T17:01:48.922Z,99602.75
2023-03-10T17:04:29.651Z,99600.22
2023-03-10T17:07:00.965Z,99608.09
2023-03-10T17:09:33.586Z,99610.75
2023-03-10T17:12:03.766Z,99620.16
2023-03-10T17:14:35.667Z,99626.09
2023-03-10T17:17:08.043Z,99638.97
2023-03-10T17:19:39.409Z,99638.00
2023-03-10T17:22:09.380Z,99644.16
2023-03-10T17:24:44.165Z,99643.03
2023-03-10T17:27:14.178Z,99648.06
2023-03-10T17:29:44.112Z,99654.66
2023-03-10T17:32:23.896Z,99657.19
2023-03-10T17:34:53.864Z,99667.22
2023-03-10T17:37:24.191Z,99665.53
2023-03-10T17:39:56.950Z,99670.88
2023-03-10T17:42:27.510Z,99681.41
2023-03-10T17:44:57.367Z,99698.81
2023-03-10T17:47:27.394Z,99718.97
2023-03-10T17:50:00.309Z,99725.75
2023-03-10T17:52:30.363Z,99738.44
2023-03-10T17:55:03.032Z,99739.50
2023-03-10T17:57:33.063Z,99744.94
2023-03-10T18:00:05.416Z,99755.00
2023-03-10T18:02:35.401Z,99758.38
2023-03-10T18:05:05.347Z,99772.31
2023-03-10T18:07:35.112Z,99771.47
2023-03-10T18:10:08.850Z,99786.22
2023-03-10T18:12:38.598Z,99796.66
2023-03-10T18:15:09.538Z,99802.09
2023-03-10T18:17:39.445Z,99809.81
2023-03-10T18:20:17.492Z,99814.25
2023-03-10T18:22:48.019Z,99812.31
2023-03-10T18:25:21.552Z,99821.69
2023-03-10T18:27:51.592Z,99817.22
2023-03-10T18:30:24.514Z,99823.06
2023-03-10T18:32:57.111Z,99835.94
2023-03-10T18:35:27.137Z,99843.56
2023-03-10T18:37:57.674Z,99845.06
2023-03-10T18:40:30.220Z,99843.38
2023-03-10T18:43:00.179Z,99854.69
2023-03-10T18:45:29.979Z,99858.13
2023-03-10T18:47:59.827Z,99875.44
2023-03-10T18:50:29.804Z,99875.25
2023-03-10T18:53:00.474Z,99874.38
2023-03-10T18:55:32.971Z,99882.31
2023-03-10T18:58:02.876Z,99885.97
2023-03-10T19:00:33.141Z,99892.94
2023-03-10T19:03:03.177Z,99907.75
2023-03-10T19:05:33.238Z,99903.41
2023-03-10T19:08:03.984Z,99907.84
2023-03-10T19:10:36.835Z,99911.31
2023-03-10T19:13:07.687Z,99912.06
2023-03-10T19:15:39.510Z,99920.59
2023-03-10T19:18:09.538Z,99924.19
2023-03-10T19:20:39.351Z,99923.72
2023-03-10T19:23:09.272Z,99924.44
2023-03-10T19:25:41.728Z,99932.38
2023-03-10T19:28:13.084Z,99938.53
2023-03-10T19:30:45.014Z,99936.84
2023-03-10T19:33:14.982Z,99936.13
2023-03-10T19:35:44.982Z,99943.88
2023-03-10T19:38:14.877Z,99949.00
2023-03-10T19:40:49.078Z,99955.25
2023-03-10T19:43:18.890Z,99966.59
2023-03-10T19:46:01.948Z,99964.09
2023-03-10T19:48:32.634Z,99986.50
2023-03-10T19:51:03.026Z,99988.03
2023-03-10T19:53:33.147Z,99991.97
2023-03-10T19:56:08.721Z,100013.38
2023-03-10T19:58:39.469Z,100008.69
2023-03-10T20:01:15.318Z,100019.97
2023-03-10T20:03:46.335Z,100031.78
2023-03-10T20:06:16.387Z,100037.59
2023-03-10T20:08:49.353Z,100035.16
2023-03-10T20:11:24.802Z,100038.75
2023-03-10T20:14:01.444Z,100045.06
2023-03-10T20:16:33.016Z,100044.25
2023-03-10T20:19:19.914Z,100042.75
2023-03-10T20:21:50.063Z,100055.00
2023-03-10T20:24:28.869Z,100046.56
2023-03-10T20:27:03.295Z,100053.72
2023-03-10T20:29:47.442Z,100062.66
2023-03-10T20:32:17.488Z,100061.84
2023-03-10T20:34:47.433Z,100085.81
2023-03-10T20:37:17.256Z,100091.28
2023-03-10T20:39:47.144Z,100092.69
2023-03-10T20:42:21.894Z,100093.97
2023-03-10T20:44:51.751Z,100102.69
2023-03-10T20:47:22.840Z,100104.66
2023-03-10T20:49:52.885Z,100125.56
2023-03-10T20:52:22.800Z,100146.47
2023-03-10T20:54:52.825Z,100137.63
2023-03-10T20:57:25.484Z,100152.19
2023-03-10T20:59:55.972Z,100145.78
2023-03-10T21:02:25.920Z,100137.81
2023-03-10T21:04:55.882Z,100145.56
2023-03-10T21:07:25.986Z,100147.38
2023-03-10T21:10:01.319Z,100153.34
2023-03-10T21:12:34.470Z,100150.03
2023-03-10T21:15:04.414Z,100162.22
2023-03-10T21:17:37.354Z,100164.88
2023-03-10T21:20:09.081Z,100178.75
2023-03-10T21:22:40.046Z,100178.09
2023-03-10T21:25:12.788Z,100191.16
2023-03-10T21:27:45.361Z,100203.13
2023-03-10T21:30:20.196Z,100203.13
2023-03-10T21:32:50.210Z,100200.53
2023-03-10T21:35:20.399Z,100203.94
2023-03-10T21:37:50.502Z,100198.75
2023-03-10T21:40:26.081Z,100209.03
2023-03-10T21:43:00.219Z,100210.28
2023-03-10T21:48:23.254Z,100216.38
2023-03-10T21:50:59.784Z,100219.16
2023-03-10T21:53:29.967Z,100233.00
2023-03-10T21:58:35.207Z,100247.50
2023-03-10T22:03:50.335Z,100257.13
2023-03-10T22:06:20.219Z,100264.59
2023-03-10T22:08:53.035Z,100258.44
2023-03-10T22:11:25.136Z,100243.00
2023-03-10T22:13:57.624Z,100248.16
2023-03-10T22:16:27.527Z,100240.56
2023-03-10T22:18:57.460Z,100246.03
2023-03-10T22:21:27.847Z,100252.28
2023-03-10T22:23:57.968Z,100246.38
2023-03-10T22:26:28.667Z,100252.22
2023-03-10T22:29:01.090Z,100263.38
2023-03-10T22:31:37.887Z,100266.84
2023-03-10T22:34:07.762Z,100269.66
2023-03-10T22:36:40.556Z,100275.78
2023-03-10T22:39:13.472Z,100278.59
2023-03-10T22:41:43.386Z,100273.59
2023-03-10T22:44:16.272Z,100290.41
2023-03-10T22:46:47.257Z,100286.19
2023-03-10T22:49:18.904Z,100291.84
2023-03-10T22:51:49.434Z,100301.88
2023-03-10T22:54:22.121Z,100322.69
2023-03-10T22:56:51.897Z,100316.72
2023-03-10T22:59:31.944Z,100317.78
2023-03-10T23:02:01.771Z,100317.19
2023-03-10T23:18:13.185Z,100338.56
2023-03-10T23:24:07.973Z,100347.88
2023-03-10T23:26:50.389Z,100350.47
2023-03-10T23:29:32.298Z,100358.13
2023-03-10T23:32:02.210Z,100361.63
2023-03-10T23:34:32.134Z,100370.31
2023-03-10T23:37:02.086Z,100363.59
2023-03-10T23:39:34.533Z,100373.16
2023-03-10T23:42:06.775Z,100366.38
2023-03-10T23:44:39.652Z,100373.28
2023-03-10T23:47:09.698Z,100385.34
2023-03-10T23:49:39.584Z,100378.63
2023-03-10T23:52:09.660Z,100394.38
2023-03-10T23:54:42.167Z,100401.44
2023-03-10T23:57:12.034Z,100399.78
2023-03-10T23:59:42.478Z,100398.84
